Time;durP1;ratioP1;P1;durP2;ratioP2;P2;SDS_P1;SDS_P2;PMS_P1;PMS_P2;Temp;Humidity;BMP_temperature;BMP_pressure;BME280_temperature;BME280_humidity;BME280_pressure;Samples;Min_cycle;Max_cycle;Signal;HPM_P1;HPM_P2
2022/02/12 00:02:17;;;;;;;19.52;6.28;;;;;;;1.01;82.06;103309.81;5035044;28;20041;-71
2022/02/12 00:04:43;;;;;;;18.73;5.90;;;;;;;1.09;81.31;103320.53;5036025;28;20033;-71
2022/02/12 00:07:09;;;;;;;29.02;6.30;;;;;;;0.98;82.51;103309.09;5036336;28;20108;-71
2022/02/12 00:09:35;;;;;;;16.58;5.43;;;;;;;0.99;81.31;103315.84;5018339;28;20025;-71
2022/02/12 00:12:00;;;;;;;20.80;5.85;;;;;;;0.94;82.37;103318.56;5036076;28;20101;-71
2022/02/12 00:14:26;;;;;;;15.13;5.75;;;;;;;0.96;81.89;103321.91;5018579;28;20107;-72
2022/02/12 00:16:51;;;;;;;16.20;5.80;;;;;;;0.86;82.11;103323.16;5034887;28;20025;-72
2022/02/12 00:19:17;;;;;;;21.23;6.15;;;;;;;0.75;82.86;103308.31;5034946;28;20030;-72
2022/02/12 00:21:42;;;;;;;20.95;6.05;;;;;;;0.85;82.17;103307.03;5018334;28;20025;-72
2022/02/12 00:24:07;;;;;;;17.02;5.75;;;;;;;0.84;82.93;103292.66;5035253;28;20021;-72
2022/02/12 00:26:32;;;;;;;22.40;5.55;;;;;;;1.01;81.71;103297.09;5035638;28;20026;-71
2022/02/12 00:28:58;;;;;;;23.60;6.65;;;;;;;1.12;81.36;103299.16;5018121;28;20020;-71
2022/02/12 00:31:23;;;;;;;13.32;5.50;;;;;;;1.04;81.02;103288.50;5035785;28;20033;-71
2022/02/12 00:33:49;;;;;;;18.02;5.93;;;;;;;1.01;81.27;103286.91;5035697;28;20052;-72
2022/02/12 00:36:14;;;;;;;14.30;5.93;;;;;;;0.83;81.48;103275.72;5035391;28;20056;-71
2022/02/12 00:38:39;;;;;;;22.15;5.75;;;;;;;0.86;81.42;103270.53;5017842;28;20364;-71
2022/02/12 00:41:04;;;;;;;18.02;6.20;;;;;;;0.80;81.90;103282.66;5035662;28;20117;-72
2022/02/12 00:43:30;;;;;;;22.25;6.63;;;;;;;0.72;81.56;103275.34;5035447;28;20025;-73
2022/02/12 00:45:55;;;;;;;21.13;5.70;;;;;;;0.67;81.93;103277.25;5035774;28;20060;-73
2022/02/12 00:48:21;;;;;;;21.80;5.97;;;;;;;0.62;82.57;103267.25;5035373;28;20034;-73
2022/02/12 00:50:46;;;;;;;16.70;5.38;;;;;;;0.81;82.37;103277.53;5017602;28;20013;-72
2022/02/12 00:53:11;;;;;;;18.38;5.63;;;;;;;0.66;82.18;103263.69;5035434;28;20373;-73
2022/02/12 00:55:36;;;;;;;17.10;5.65;;;;;;;0.80;81.99;103275.84;5017896;28;20079;-70
2022/02/12 00:58:02;;;;;;;17.77;5.60;;;;;;;0.56;82.05;103264.94;5035043;28;20029;-72
2022/02/12 01:00:27;;;;;;;22.60;6.18;;;;;;;0.70;82.84;103269.47;5017450;28;20415;-72
2022/02/12 01:02:53;;;;;;;22.63;6.20;;;;;;;0.76;82.17;103255.69;5035378;28;20021;-72
2022/02/12 01:05:18;;;;;;;21.70;6.40;;;;;;;0.90;81.98;103263.59;5017250;28;20029;-72
2022/02/12 01:07:43;;;;;;;21.30;6.50;;;;;;;0.89;81.40;103267.00;5035196;28;20025;-72
2022/02/12 01:10:09;;;;;;;19.75;7.20;;;;;;;0.90;81.49;103264.41;5017324;28;20036;-73
2022/02/12 01:12:38;;;;;;;21.38;6.68;;;;;;;0.78;81.96;103264.09;5035141;28;20025;-71
2022/02/12 01:15:04;;;;;;;18.55;6.28;;;;;;;0.74;83.28;103250.66;5017123;28;20021;-72
2022/02/12 01:17:32;;;;;;;20.70;6.75;;;;;;;0.74;82.44;103253.19;5017322;28;20057;-71
2022/02/12 01:19:58;;;;;;;17.40;6.45;;;;;;;0.83;82.45;103252.81;5017071;28;20063;-71
2022/02/12 01:22:24;;;;;;;16.67;6.75;;;;;;;0.99;81.37;103259.84;5035002;28;20025;-72
2022/02/12 01:24:53;;;;;;;17.58;7.00;;;;;;;0.81;82.55;103254.63;5034968;28;20055;-70
2022/02/12 01:27:18;;;;;;;19.17;6.57;;;;;;;0.70;82.74;103251.66;5034925;28;20018;-70
2022/02/12 01:29:44;;;;;;;18.95;6.90;;;;;;;0.61;82.75;103249.50;5034624;28;20039;-71
2022/02/12 01:32:09;;;;;;;24.33;7.15;;;;;;;0.64;82.56;103252.75;5033488;28;20460;-71
2022/02/12 01:34:36;;;;;;;25.38;7.35;;;;;;;0.51;83.43;103245.66;5032841;28;20050;-72
2022/02/12 01:37:03;;;;;;;24.20;7.28;;;;;;;0.65;82.61;103246.75;5016965;28;20025;-71
2022/02/12 01:39:28;;;;;;;22.10;7.32;;;;;;;0.65;82.75;103241.66;5016698;28;20035;-71
2022/02/12 01:41:54;;;;;;;19.42;7.20;;;;;;;0.48;83.24;103236.41;5034425;28;20100;-71
2022/02/12 01:44:27;;;;;;;24.45;7.30;;;;;;;0.67;83.70;103244.97;5016801;28;20025;-71
2022/02/12 01:46:52;;;;;;;15.50;6.93;;;;;;;0.61;83.16;103240.16;5034482;28;20048;-71
2022/02/12 01:49:18;;;;;;;18.92;6.70;;;;;;;0.51;83.84;103238.03;5034424;28;20398;-71
2022/02/12 01:51:43;;;;;;;26.40;7.30;;;;;;;0.41;84.09;103240.94;5016489;28;20022;-71
2022/02/12 01:54:08;;;;;;;17.27;6.75;;;;;;;0.45;84.38;103237.38;5034660;28;20104;-71
2022/02/12 01:56:34;;;;;;;20.70;7.10;;;;;;;0.43;84.11;103235.75;5034211;28;20033;-71
2022/02/12 01:59:00;;;;;;;20.35;7.25;;;;;;;0.32;85.10;103233.66;5034062;28;20022;-71
2022/02/12 02:01:25;;;;;;;15.13;6.82;;;;;;;0.25;85.50;103232.22;5034382;28;20082;-71
2022/02/12 02:03:50;;;;;;;19.80;7.25;;;;;;;0.23;86.14;103226.38;5016443;28;20026;-71
2022/02/12 02:06:16;;;;;;;19.15;7.15;;;;;;;0.25;85.28;103229.69;5016469;28;20111;-71
2022/02/12 02:08:42;;;;;;;21.42;7.28;;;;;;;0.19;85.99;103228.22;5032316;28;20036;-70
2022/02/12 02:11:08;;;;;;;19.02;7.25;;;;;;;0.18;86.22;103229.09;5034012;28;20029;-70
2022/02/12 02:13:33;;;;;;;19.88;7.68;;;;;;;0.13;86.01;103227.63;5016120;28;20132;-70
2022/02/12 02:15:59;;;;;;;20.88;6.82;;;;;;;0.17;86.47;103219.84;5016270;28;20060;-71
2022/02/12 02:18:24;;;;;;;29.15;7.35;;;;;;;0.21;86.38;103212.91;5034076;28;20029;-71
2022/02/12 02:20:49;;;;;;;17.45;7.20;;;;;;;0.11;86.94;103204.78;5033826;28;20353;-71
2022/02/12 02:23:17;;;;;;;21.27;7.43;;;;;;;0.15;86.93;103205.53;5033847;28;20510;-71
2022/02/12 02:25:43;;;;;;;17.38;7.18;;;;;;;0.17;86.28;103208.81;5015891;28;20021;-71
2022/02/12 02:28:08;;;;;;;21.90;7.07;;;;;;;0.21;86.42;103195.09;5034130;28;20401;-71
2022/02/12 02:30:34;;;;;;;22.17;7.53;;;;;;;0.07;86.88;103197.34;5033929;28;20028;-71
2022/02/12 02:32:59;;;;;;;20.85;7.45;;;;;;;0.04;86.75;103182.22;5033785;28;20026;-71
2022/02/12 02:35:25;;;;;;;23.20;8.00;;;;;;;0.05;87.25;103178.78;5033552;28;20045;-71
2022/02/12 02:37:51;;;;;;;20.20;8.10;;;;;;;0.12;86.88;103180.22;5016019;28;20036;-71
2022/02/12 02:40:21;;;;;;;20.33;7.70;;;;;;;0.14;86.71;103161.44;5016101;28;20018;-70
2022/02/12 02:42:49;;;;;;;24.08;7.80;;;;;;;0.04;86.79;103154.25;5033222;28;20079;-71
2022/02/12 02:45:15;;;;;;;16.83;7.80;;;;;;;0.16;86.81;103161.41;5033847;28;20453;-73
2022/02/12 02:47:41;;;;;;;25.92;8.18;;;;;;;0.30;86.76;103148.13;5015973;28;20030;-71
2022/02/12 02:55:59;;;;;;;17.13;7.18;;;;;;;0.17;86.57;103145.25;5015817;28;20038;-71
2022/02/12 02:58:23;;;;;;;20.33;7.45;;;;;;;0.25;86.20;103142.41;5033924;28;20040;-71
2022/02/12 03:00:48;;;;;;;18.88;7.47;;;;;;;0.30;86.32;103137.97;5033076;28;20029;-71
2022/02/12 03:03:13;;;;;;;19.52;7.03;;;;;;;0.36;85.85;103152.97;5033416;28;20048;-71
2022/02/12 03:05:39;;;;;;;16.30;6.60;;;;;;;0.22;85.65;103141.63;5033339;28;20068;-70
2022/02/12 03:08:04;;;;;;;18.10;6.97;;;;;;;0.22;85.80;103131.44;5016108;28;20029;-71
2022/02/12 03:10:29;;;;;;;20.65;7.28;;;;;;;0.36;85.48;103135.97;5033335;28;20026;-71
2022/02/12 03:12:54;;;;;;;23.27;7.95;;;;;;;0.35;85.41;103136.88;5033284;28;20108;-71
2022/02/12 03:15:21;;;;;;;29.38;6.93;;;;;;;0.31;85.27;103140.41;5015774;28;20095;-71
2022/02/12 03:17:46;;;;;;;20.20;6.68;;;;;;;0.24;85.73;103128.03;5033233;28;20353;-71
2022/02/12 03:20:11;;;;;;;26.27;7.38;;;;;;;0.28;85.48;103127.00;5015608;28;20083;-71
2022/02/12 03:22:36;;;;;;;16.35;7.07;;;;;;;0.39;85.29;103146.03;5033422;28;20033;-71
2022/02/12 03:25:02;;;;;;;19.08;7.97;;;;;;;0.32;85.16;103147.19;5033285;28;20021;-71
2022/02/12 03:27:28;;;;;;;16.02;6.63;;;;;;;0.31;85.26;103134.50;5033094;28;20026;-71
2022/02/12 03:29:53;;;;;;;23.42;6.78;;;;;;;0.18;85.69;103129.09;5015712;28;20112;-71
2022/02/12 03:32:18;;;;;;;19.50;6.85;;;;;;;0.22;85.31;103125.53;5015357;28;20537;-71
2022/02/12 03:34:44;;;;;;;20.27;6.90;;;;;;;0.29;85.11;103128.66;5032724;28;20057;-72
2022/02/12 03:37:09;;;;;;;19.52;6.85;;;;;;;0.32;84.88;103119.22;5033029;28;20025;-72
2022/02/12 03:39:34;;;;;;;22.52;7.32;;;;;;;0.32;84.77;103123.47;5033315;28;20047;-72
2022/02/12 03:41:59;;;;;;;19.10;6.78;;;;;;;0.35;84.71;103116.53;5033130;28;20469;-72
2022/02/12 03:44:25;;;;;;;22.25;7.15;;;;;;;0.31;85.06;103115.00;5015495;28;20116;-72
2022/02/12 03:46:50;;;;;;;22.42;6.80;;;;;;;0.26;84.81;103116.91;5033032;28;20025;-72
2022/02/12 03:49:15;;;;;;;26.70;6.68;;;;;;;0.25;84.72;103106.78;5015260;28;20032;-73
2022/02/12 03:51:40;;;;;;;16.05;6.50;;;;;;;0.37;84.23;103103.75;5032683;28;20594;-72
2022/02/12 03:54:06;;;;;;;17.30;7.03;;;;;;;0.33;84.23;103103.03;5015284;28;20033;-71
2022/02/12 03:56:31;;;;;;;21.95;6.63;;;;;;;0.27;84.89;103097.38;5018954;28;20456;-72
2022/02/12 03:58:56;;;;;;;16.83;6.03;;;;;;;0.24;85.05;103097.53;5036608;28;20076;-71
2022/02/12 04:01:21;;;;;;;19.13;5.85;;;;;;;0.31;84.50;103088.72;5018764;28;20080;-72
2022/02/12 04:03:47;;;;;;;18.20;5.85;;;;;;;0.31;84.65;103088.72;5018707;28;20031;-71
2022/02/12 04:06:12;;;;;;;26.05;6.93;;;;;;;0.31;84.24;103088.72;5036281;28;20361;-71
2022/02/12 04:08:38;;;;;;;20.92;6.30;;;;;;;0.30;83.66;103087.91;5018612;28;20033;-71
2022/02/12 04:11:04;;;;;;;19.25;5.95;;;;;;;0.50;83.68;103093.91;5018419;28;20480;-71
2022/02/12 04:13:32;;;;;;;19.65;6.13;;;;;;;0.48;83.57;103086.31;5018353;28;20540;-72
2022/02/12 04:15:57;;;;;;;16.33;5.53;;;;;;;0.36;83.84;103079.19;5035907;28;20013;-71
2022/02/12 04:18:22;;;;;;;24.63;6.13;;;;;;;0.38;83.76;103070.63;5035100;28;20032;-72
2022/02/12 04:20:48;;;;;;;18.95;5.93;;;;;;;0.38;83.36;103077.44;5036138;28;20104;-71
2022/02/12 04:23:13;;;;;;;21.67;6.15;;;;;;;0.24;84.05;103075.44;5035910;28;20480;-71
2022/02/12 04:25:39;;;;;;;20.30;5.90;;;;;;;0.32;83.96;103070.06;5036245;28;20033;-71
2022/02/12 04:28:09;;;;;;;20.17;6.22;;;;;;;0.32;84.05;103072.59;5018186;28;20029;-71
2022/02/12 04:30:39;;;;;;;18.02;5.85;;;;;;;0.19;83.79;103042.56;5018192;28;20021;-71
2022/02/12 04:33:09;;;;;;;22.38;6.07;;;;;;;0.49;83.15;103056.59;5018355;28;20079;-71
2022/02/12 04:35:34;;;;;;;23.17;5.97;;;;;;;0.47;83.18;103064.31;5017995;28;20052;-72
2022/02/12 04:38:00;;;;;;;16.67;5.70;;;;;;;0.32;83.46;103058.16;5035779;28;20517;-71
2022/02/12 04:40:25;;;;;;;20.35;5.53;;;;;;;0.29;83.02;103044.72;5001624;28;20427;-71
2022/02/12 04:42:51;;;;;;;18.50;6.22;;;;;;;0.24;83.59;103044.94;5034445;28;20033;-71
2022/02/12 04:45:16;;;;;;;22.08;6.18;;;;;;;0.30;83.64;103037.03;5035843;28;20025;-71
2022/02/12 04:47:43;;;;;;;18.65;6.35;;;;;;;0.19;83.95;103047.66;5017852;28;20033;-71
2022/02/12 04:50:09;;;;;;;19.27;6.40;;;;;;;0.26;84.05;103043.16;5035897;28;20041;-71
2022/02/12 04:52:35;;;;;;;18.58;5.97;;;;;;;0.24;83.20;103042.38;5017708;28;20029;-71
2022/02/12 04:55:01;;;;;;;19.77;5.72;;;;;;;0.11;83.73;103031.06;5017919;28;20029;-70
2022/02/12 04:57:26;;;;;;;17.55;5.85;;;;;;;0.15;83.64;103024.97;5017580;28;20025;-70
2022/02/12 04:59:51;;;;;;;16.38;5.25;;;;;;;0.11;83.62;103025.97;5017619;28;20108;-70
2022/02/12 05:02:17;;;;;;;21.48;6.10;;;;;;;0.19;83.62;103034.13;5035292;28;20034;-71
2022/02/12 05:04:42;;;;;;;14.18;5.35;;;;;;;0.20;83.21;103020.50;5017315;28;20029;-71
2022/02/12 05:07:09;;;;;;;18.10;6.45;;;;;;;0.18;83.12;103020.59;5034797;28;20036;-70
2022/02/12 05:09:35;;;;;;;14.88;5.53;;;;;;;0.12;83.50;103009.84;5017617;28;20045;-71
2022/02/12 05:12:04;;;;;;;17.88;5.18;;;;;;;0.19;83.35;103014.59;5017159;28;20044;-72
2022/02/12 05:14:31;;;;;;;23.98;6.07;;;;;;;0.10;83.18;103001.44;5035029;28;20029;-71
2022/02/12 05:16:57;;;;;;;22.80;5.65;;;;;;;0.09;83.30;102999.81;5017207;28;20064;-71
2022/02/12 05:19:22;;;;;;;16.02;5.95;;;;;;;0.04;83.73;102994.09;5033591;28;20069;-71
2022/02/12 05:21:48;;;;;;;17.58;5.88;;;;;;;0.05;84.69;102998.28;5034829;28;20029;-70
2022/02/12 05:24:13;;;;;;;13.85;5.88;;;;;;;0.06;84.27;102999.91;5033991;28;20108;-71
2022/02/12 05:26:38;;;;;;;12.05;5.10;;;;;;;0.05;83.70;102991.47;5034079;28;20029;-70
2022/02/12 05:29:04;;;;;;;16.30;5.75;;;;;;;0.05;83.73;102991.47;5033396;28;20017;-70
2022/02/12 05:31:29;;;;;;;21.38;5.82;;;;;;;0.07;83.44;102981.25;5016969;28;20404;-71
2022/02/12 05:33:54;;;;;;;15.38;5.95;;;;;;;0.15;83.16;102987.66;5034720;28;20026;-71
2022/02/12 05:36:20;;;;;;;19.30;5.50;;;;;;;0.10;83.30;102987.03;5016958;28;20033;-71
2022/02/12 05:38:45;;;;;;;13.88;5.35;;;;;;;0.14;83.12;102977.53;5034571;28;20112;-71
2022/02/12 05:41:15;;;;;;;19.30;5.72;;;;;;;0.08;83.52;102985.44;5016788;28;20022;-71
2022/02/12 05:43:41;;;;;;;15.35;5.30;;;;;;;0.24;83.02;102981.34;5034454;28;20464;-71
2022/02/12 05:46:07;;;;;;;14.88;6.07;;;;;;;0.22;83.46;102991.56;5034483;28;20067;-71
2022/02/12 05:48:33;;;;;;;21.52;5.80;;;;;;;0.22;83.55;102983.13;5015911;28;20025;-70
2022/02/12 05:50:59;;;;;;;19.63;5.50;;;;;;;0.24;82.84;102988.16;5034435;28;20033;-70
2022/02/12 05:53:25;;;;;;;18.02;5.60;;;;;;;0.07;83.15;102986.31;5016468;28;20037;-72
2022/02/12 05:55:51;;;;;;;19.17;6.03;;;;;;;0.13;83.47;102970.81;5034343;28;20530;-72
2022/02/12 05:58:17;;;;;;;20.67;5.22;;;;;;;0.01;83.69;102966.25;5034191;28;20079;-72
2022/02/12 06:00:42;;;;;;;13.75;5.60;;;;;;;0.03;83.98;102977.16;5034166;28;20453;-71
2022/02/12 06:03:07;;;;;;;14.55;5.25;;;;;;;0.06;83.90;102966.84;5034117;28;20086;-71
2022/02/12 06:05:32;;;;;;;18.92;5.45;;;;;;;-0.15;84.24;102956.69;5034364;28;20025;-71
2022/02/12 06:08:04;;;;;;;26.30;5.97;;;;;;;-0.07;84.64;102966.56;5016410;28;20029;-71
2022/02/12 06:10:30;;;;;;;19.05;5.38;;;;;;;-0.01;83.87;102951.88;5034265;28;20017;-70
2022/02/12 06:12:55;;;;;;;16.67;5.72;;;;;;;0.08;83.85;102960.81;5016172;28;20426;-72
2022/02/12 06:15:21;;;;;;;19.17;5.30;;;;;;;-0.11;84.53;102954.88;5033717;28;20026;-72
2022/02/12 06:17:47;;;;;;;16.25;5.63;;;;;;;-0.13;84.55;102954.94;5033237;28;20037;-71
2022/02/12 06:20:13;;;;;;;14.13;5.28;;;;;;;-0.05;84.19;102945.28;5015954;28;20021;-71
2022/02/12 06:22:38;;;;;;;20.05;5.32;;;;;;;-0.06;84.39;102943.63;5016275;28;20021;-71
2022/02/12 06:25:04;;;;;;;19.73;5.60;;;;;;;-0.16;84.68;102932.19;5032677;28;20033;-71
2022/02/12 06:27:29;;;;;;;22.80;6.00;;;;;;;-0.15;84.98;102935.56;5033754;28;20052;-71
2022/02/12 06:29:55;;;;;;;20.40;5.35;;;;;;;-0.10;84.19;102926.03;5016094;28;20018;-71
2022/02/12 06:32:21;;;;;;;16.58;5.38;;;;;;;-0.04;84.42;102925.75;5016008;28;20022;-71
2022/02/12 06:34:46;;;;;;;20.45;5.60;;;;;;;-0.03;84.14;102920.63;5033551;28;20461;-71
2022/02/12 06:37:12;;;;;;;11.70;5.32;;;;;;;-0.05;83.95;102914.78;5033771;28;20119;-71
2022/02/12 06:39:37;;;;;;;17.73;5.60;;;;;;;0.01;84.55;102926.41;5040815;28;20025;-71
2022/02/12 06:42:03;;;;;;;16.73;5.72;;;;;;;-0.09;84.22;102932.75;5033926;28;20100;-71
2022/02/12 06:44:28;;;;;;;22.63;5.60;;;;;;;-0.09;84.73;102928.47;5033740;28;20025;-73
2022/02/12 06:46:54;;;;;;;23.63;6.18;;;;;;;-0.03;84.63;102910.47;5033504;28;20025;-71
2022/02/12 06:49:19;;;;;;;13.20;5.25;;;;;;;-0.23;84.22;102902.84;5033710;28;20045;-72
2022/02/12 06:51:45;;;;;;;23.35;5.85;;;;;;;-0.13;84.43;102909.19;5033642;28;20029;-72
2022/02/12 06:54:11;;;;;;;21.02;5.80;;;;;;;-0.20;84.86;102929.81;5015314;28;20037;-72
2022/02/12 06:56:37;;;;;;;19.85;6.07;;;;;;;-0.12;84.40;102922.72;5015217;28;20380;-71
2022/02/12 06:59:02;;;;;;;19.42;5.95;;;;;;;-0.25;84.78;102914.78;5032853;28;20025;-72
2022/02/12 07:01:28;;;;;;;21.33;6.18;;;;;;;-0.21;84.97;102898.50;5015324;28;20064;-72
2022/02/12 07:03:54;;;;;;;26.30;5.95;;;;;;;-0.14;84.60;102899.91;5034226;28;20533;-73
2022/02/12 07:06:19;;;;;;;14.70;6.30;;;;;;;-0.17;84.39;102899.19;5015577;28;20108;-72
2022/02/12 07:08:44;;;;;;;19.25;6.22;;;;;;;-0.11;84.09;102896.44;5033051;28;20045;-71
2022/02/12 07:11:10;;;;;;;17.40;5.63;;;;;;;-0.11;83.96;102894.72;5033036;28;20495;-71
2022/02/12 07:13:35;;;;;;;16.50;5.38;;;;;;;-0.12;83.87;102892.22;5033346;28;20026;-72
2022/02/12 07:16:02;;;;;;;18.00;5.30;;;;;;;-0.22;83.78;102894.34;5032878;28;20025;-71
2022/02/12 07:18:28;;;;;;;20.58;5.97;;;;;;;-0.07;83.64;102906.38;5031718;28;20036;-72
2022/02/12 07:20:53;;;;;;;16.38;5.72;;;;;;;-0.12;83.70;102892.22;5014951;28;20028;-72
2022/02/12 07:23:20;;;;;;;15.25;5.63;;;;;;;-0.10;83.59;102891.25;5032807;28;20021;-71
2022/02/12 07:25:45;;;;;;;16.02;5.78;;;;;;;-0.07;83.59;102898.75;5032865;28;20036;-71
2022/02/12 07:28:11;;;;;;;15.30;5.32;;;;;;;0.01;83.12;102910.31;5033032;28;20244;-72
2022/02/12 07:30:36;;;;;;;21.30;5.53;;;;;;;0.20;82.53;102913.69;5018774;28;20419;-72
2022/02/12 07:33:01;;;;;;;20.50;6.45;;;;;;;0.26;82.16;102905.81;5018885;28;20033;-71
2022/02/12 07:35:27;;;;;;;24.55;5.80;;;;;;;0.27;82.16;102912.56;5002182;28;20049;-72
2022/02/12 07:37:52;;;;;;;21.98;6.10;;;;;;;0.44;81.08;102914.34;5038461;28;20032;-72
2022/02/12 07:40:19;;;;;;;15.02;5.85;;;;;;;0.33;80.40;102899.56;5021643;28;20026;-73
2022/02/12 07:42:46;;;;;;;17.88;5.95;;;;;;;0.58;81.05;102913.75;5029257;28;20053;-73
2022/02/12 07:45:12;;;;;;;21.17;6.20;;;;;;;0.43;80.53;102897.41;5042001;28;20028;-72
2022/02/12 07:47:37;;;;;;;18.63;6.78;;;;;;;0.93;80.01;102896.84;5034802;28;20029;-72
2022/02/12 07:50:05;;;;;;;19.73;6.13;;;;;;;0.98;78.20;102899.16;5035215;28;20431;-72
2022/02/12 07:52:30;;;;;;;18.40;6.07;;;;;;;0.54;80.53;102892.69;5017024;28;20029;-72
2022/02/12 07:54:55;;;;;;;26.05;7.10;;;;;;;0.44;80.67;102884.66;5036027;28;20032;-71
2022/02/12 07:57:20;;;;;;;21.58;6.63;;;;;;;0.53;81.01;102885.13;5035913;28;20036;-70
2022/02/12 07:59:46;;;;;;;18.45;6.50;;;;;;;0.53;80.95;102882.59;5018072;28;20040;-70
2022/02/12 08:02:11;;;;;;;21.95;6.38;;;;;;;1.40;78.32;102891.19;5034783;28;20025;-71
2022/02/12 08:04:36;;;;;;;18.88;6.43;;;;;;;3.16;71.58;102897.22;5018225;28;20049;-72
2022/02/12 08:09:46;;;;;;;17.83;6.70;;;;;;;4.83;65.58;102888.09;5035992;28;20395;-72
2022/02/12 08:12:13;;;;;;;20.10;6.30;;;;;;;5.05;64.01;102885.81;5017739;28;20120;-73
2022/02/12 08:14:49;;;;;;;20.08;6.55;;;;;;;4.54;63.87;102890.75;5034262;28;20024;-72
2022/02/12 08:17:17;;;;;;;15.95;6.85;;;;;;;4.81;63.42;102879.69;5017851;28;20028;-71
2022/02/12 08:19:44;;;;;;;20.63;6.43;;;;;;;5.55;61.33;102870.56;5017553;28;20464;-72
2022/02/12 08:22:11;;;;;;;22.33;6.55;;;;;;;5.51;61.99;102869.97;5017784;28;20017;-72
2022/02/12 08:24:36;;;;;;;19.13;5.80;;;;;;;5.34;61.57;102868.53;5018309;28;20025;-72
2022/02/12 08:27:02;;;;;;;17.95;5.95;;;;;;;6.12;59.95;102870.13;5035525;28;20036;-72
2022/02/12 08:29:28;;;;;;;18.27;5.88;;;;;;;6.43;59.15;102868.00;5017736;28;20079;-72
2022/02/12 08:31:58;;;;;;;19.70;6.00;;;;;;;6.94;56.46;102862.63;5017745;28;20026;-72
2022/02/12 08:34:27;;;;;;;20.88;5.32;;;;;;;5.86;59.06;102857.31;5017473;28;20050;-71
2022/02/12 08:36:54;;;;;;;15.95;6.07;;;;;;;4.42;63.93;102853.94;5017677;28;20384;-71
2022/02/12 08:39:20;;;;;;;15.18;5.88;;;;;;;2.91;68.28;102863.75;5017618;28;20017;-71
2022/02/12 08:41:46;;;;;;;19.98;6.63;;;;;;;2.49;70.76;102860.88;5034514;28;20032;-71
2022/02/12 08:44:11;;;;;;;18.48;6.32;;;;;;;2.38;71.85;102852.97;5035166;28;20021;-71
2022/02/12 08:46:37;;;;;;;19.50;5.93;;;;;;;2.14;73.11;102839.81;5035101;28;20036;-72
2022/02/12 08:49:03;;;;;;;18.42;6.00;;;;;;;2.04;73.30;102864.16;5017326;28;20022;-72
2022/02/12 08:51:29;;;;;;;24.50;6.63;;;;;;;1.96;74.50;102856.09;5036030;28;20029;-72
2022/02/12 08:53:54;;;;;;;16.38;6.88;;;;;;;2.21;73.37;102842.84;5041085;28;20026;-72
2022/02/12 08:56:24;;;;;;;21.13;6.50;;;;;;;2.15;73.78;102846.56;5034857;28;20037;-73
2022/02/12 08:58:49;;;;;;;16.25;6.47;;;;;;;2.22;73.81;102847.91;5034691;28;20021;-72
2022/02/12 09:01:15;;;;;;;18.52;6.22;;;;;;;2.24;73.56;102832.47;5034890;28;20464;-72
2022/02/12 09:03:40;;;;;;;19.08;6.53;;;;;;;2.20;74.34;102834.38;5034647;28;20041;-72
2022/02/12 09:06:06;;;;;;;25.77;7.18;;;;;;;2.33;73.33;102834.56;5016978;28;20025;-72
2022/02/12 09:08:31;;;;;;;15.48;5.57;;;;;;;2.28;72.97;102826.34;5016822;28;20476;-70
2022/02/12 09:10:56;;;;;;;16.70;5.90;;;;;;;2.59;72.40;102827.19;5033322;28;20036;-71
2022/02/12 09:13:22;;;;;;;17.30;6.03;;;;;;;3.16;70.68;102825.69;5016730;28;20538;-73
2022/02/12 09:15:48;;;;;;;21.80;5.78;;;;;;;5.91;62.09;102827.97;5034476;28;20483;-72
2022/02/12 09:18:13;;;;;;;20.48;6.18;;;;;;;7.76;56.08;102821.31;5034349;28;20025;-73
2022/02/12 09:20:40;;;;;;;19.52;5.22;;;;;;;8.65;52.49;102812.56;5034312;28;20384;-73
2022/02/12 09:23:06;;;;;;;15.63;5.28;;;;;;;8.18;52.21;102816.34;5034461;28;20033;-73
2022/02/12 09:25:31;;;;;;;15.93;5.35;;;;;;;8.69;51.50;102828.59;5016423;28;20029;-73
2022/02/12 09:27:56;;;;;;;18.10;5.47;;;;;;;10.42;46.90;102803.59;5034392;28;20465;-73
2022/02/12 09:30:23;;;;;;;14.63;5.25;;;;;;;10.12;46.66;102825.97;5016717;28;20465;-73
2022/02/12 09:32:50;;;;;;;14.40;5.05;;;;;;;9.66;48.57;102809.28;5034194;28;20056;-73
2022/02/12 09:35:15;;;;;;;14.68;4.82;;;;;;;11.02;45.21;102832.66;5034176;28;20041;-73
2022/02/12 09:37:45;;;;;;;14.50;5.43;;;;;;;9.34;47.78;102809.44;5033295;28;20026;-72
2022/02/12 09:40:11;;;;;;;18.95;5.40;;;;;;;9.52;48.15;102795.94;5031894;28;20021;-73
2022/02/12 09:42:37;;;;;;;17.38;5.38;;;;;;;10.34;45.55;102801.69;5015825;28;20029;-75
2022/02/12 09:45:05;;;;;;;17.67;5.60;;;;;;;11.11;44.15;102786.22;5033550;28;20032;-73
2022/02/12 09:47:46;;;;;;;13.30;4.60;;;;;;;10.75;44.66;102781.66;5015146;28;20025;-75
2022/02/12 09:50:13;;;;;;;15.43;4.90;;;;;;;11.06;44.46;102776.28;5015565;28;20025;-73
2022/02/12 09:52:42;;;;;;;13.60;5.18;;;;;;;11.90;42.73;102777.94;5016160;28;20116;-73
2022/02/12 09:55:08;;;;;;;14.35;4.90;;;;;;;10.49;44.75;102796.13;5015672;28;20017;-76
2022/02/12 09:57:33;;;;;;;14.88;4.80;;;;;;;9.64;46.60;102806.03;5032928;28;20072;-74
2022/02/12 10:00:04;;;;;;;17.65;5.00;;;;;;;10.22;46.25;102779.50;5014999;28;20417;-74
2022/02/12 10:02:30;;;;;;;15.73;4.60;;;;;;;12.19;40.74;102780.31;5031575;28;20029;-72
2022/02/12 10:05:20;;;;;;;14.13;4.78;;;;;;;10.85;43.85;102771.31;5033119;28;20463;-73
2022/02/12 10:07:47;;;;;;;15.88;4.90;;;;;;;11.35;43.73;102760.63;5035996;28;20036;-74
2022/02/12 10:10:20;;;;;;;15.20;4.50;;;;;;;11.73;42.19;102761.38;5017989;28;20550;-77
2022/02/12 10:12:49;;;;;;;14.45;4.55;;;;;;;13.16;39.34;102756.00;5017449;28;20087;-74
2022/02/12 10:15:25;;;;;;;16.75;4.88;;;;;;;14.41;37.13;102742.09;5019378;28;20025;-75
2022/02/12 10:17:52;;;;;;;15.45;4.38;;;;;;;12.73;39.75;102730.97;5021108;28;20035;-77
2022/02/12 10:20:30;;;;;;;14.75;4.43;;;;;;;11.94;40.74;102754.19;5021316;28;20075;-71
2022/02/12 10:23:15;;;;;;;15.00;4.13;;;;;;;12.31;41.12;102723.84;5032808;28;20469;-74
2022/02/12 10:25:43;;;;;;;9.60;4.35;;;;;;;14.48;37.49;102736.25;5014476;28;20048;-75
2022/02/12 10:28:10;;;;;;;11.80;4.38;;;;;;;15.44;35.29;102732.66;5038115;28;20037;-73
2022/02/12 10:30:36;;;;;;;15.95;4.47;;;;;;;15.45;34.44;102724.69;5033715;28;20025;-74
2022/02/12 10:33:04;;;;;;;13.02;4.53;;;;;;;14.06;36.38;102722.44;5014508;28;20480;-73
2022/02/12 10:35:33;;;;;;;15.82;4.50;;;;;;;12.91;39.38;102733.47;5014888;28;20068;-74
2022/02/12 10:38:02;;;;;;;12.90;4.28;;;;;;;13.05;39.65;102715.53;5032144;28;20511;-74
2022/02/12 10:40:28;;;;;;;16.63;4.53;;;;;;;13.95;37.08;102735.75;5014626;28;20077;-74
2022/02/12 10:42:55;;;;;;;10.88;4.45;;;;;;;15.26;35.00;102717.31;5014849;28;20091;-74
2022/02/12 10:45:23;;;;;;;11.13;3.92;;;;;;;14.83;35.36;102722.84;5015444;28;20021;-75
2022/02/12 10:47:49;;;;;;;14.27;4.32;;;;;;;14.86;35.44;102691.28;5033202;28;20033;-73
2022/02/12 10:50:17;;;;;;;14.18;4.10;;;;;;;14.82;35.38;102712.63;5038360;28;20025;-76
2022/02/12 10:52:44;;;;;;;15.23;4.32;;;;;;;15.97;34.14;102718.03;5037209;28;20025;-74
2022/02/12 10:55:37;;;;;;;13.18;4.03;;;;;;;15.12;35.34;102716.22;5033370;28;20060;-73
2022/02/12 10:58:06;;;;;;;;;;;;;;;15.26;34.87;102719.91;5015738;28;20033;-75
2022/02/12 11:00:34;;;;;;;10.98;3.80;;;;;;;16.02;33.43;102720.88;5031958;28;20430;-74
2022/02/12 11:03:01;;;;;;;16.38;4.15;;;;;;;16.02;33.50;102713.91;5015598;28;20033;-74
2022/02/12 11:05:28;;;;;;;10.80;3.78;;;;;;;15.68;33.72;102709.09;5018544;28;20028;-73
2022/02/12 11:07:54;;;;;;;14.05;3.97;;;;;;;17.10;31.58;102723.06;5018955;28;20022;-72
2022/02/12 11:10:21;;;;;;;16.63;4.35;;;;;;;16.91;32.27;102698.31;5034879;28;20021;-73
2022/02/12 11:12:48;;;;;;;10.80;3.45;;;;;;;16.81;31.53;102692.56;5017998;28;20114;-72
2022/02/12 11:15:13;;;;;;;14.05;3.78;;;;;;;16.81;30.85;102702.22;5035662;28;20037;-73
2022/02/12 11:17:40;;;;;;;11.45;3.90;;;;;;;16.35;31.32;102702.34;5035686;28;20357;-74
2022/02/12 11:20:08;;;;;;;12.32;3.72;;;;;;;16.52;31.49;102692.56;5018095;28;20090;-73
2022/02/12 11:22:35;;;;;;;12.48;3.28;;;;;;;14.24;35.37;102688.47;5036037;28;20108;-72
2022/02/12 11:25:01;;;;;;;14.48;3.50;;;;;;;15.20;33.63;102682.34;5018338;28;20036;-76
2022/02/12 11:27:31;;;;;;;8.25;3.03;;;;;;;17.13;30.84;102661.81;5036505;28;20040;-74
2022/02/12 11:30:15;;;;;;;13.50;3.10;;;;;;;16.37;30.61;102654.22;5037091;28;20025;-74